createdAt,value
2023-03-25T00:02:49.975Z,232.82
2023-03-25T00:06:50.011Z,232.55
2023-03-25T00:10:50.193Z,234.13
2023-03-25T00:14:50.423Z,232.86
2023-03-25T00:18:50.639Z,233.85
2023-03-25T00:22:50.779Z,233.26
2023-03-25T00:26:51.024Z,234.76
2023-03-25T00:30:51.218Z,232.62
2023-03-25T00:34:51.172Z,234.73
2023-03-25T00:38:51.160Z,231.87
2023-03-25T00:42:51.070Z,233.26
2023-03-25T00:46:51.048Z,233.85
2023-03-25T00:50:51.033Z,234.78
2023-03-25T00:54:50.989Z,233.96
2023-03-25T00:58:51.020Z,233.12
2023-03-25T01:02:50.944Z,235.54
2023-03-25T01:06:50.949Z,233.89
2023-03-25T01:10:50.959Z,232.43
2023-03-25T01:14:50.933Z,234.18
2023-03-25T01:18:50.915Z,234.90
2023-03-25T05:50:51.229Z,221.61
2023-03-25T05:54:51.259Z,222.63
2023-03-25T05:58:51.231Z,221.00
2023-03-25T06:02:51.395Z,223.36
2023-03-25T06:06:51.288Z,221.58
2023-03-25T06:10:51.280Z,222.82
2023-03-25T06:14:51.318Z,222.54
2023-03-25T06:18:51.298Z,219.97
2023-03-25T06:22:51.235Z,223.45
2023-03-25T06:26:51.212Z,222.47
2023-03-25T06:30:51.429Z,222.18
2023-03-25T06:34:51.172Z,220.78
2023-03-25T06:38:51.192Z,219.18
2023-03-25T06:42:51.176Z,220.44
2023-03-25T06:46:51.155Z,218.38
2023-03-25T06:50:51.192Z,218.93
2023-03-25T06:54:51.212Z,219.32
2023-03-25T06:58:51.157Z,218.08
2023-03-25T07:02:51.209Z,213.92
2023-03-25T07:06:51.126Z,213.12
2023-03-25T07:10:51.149Z,214.26
2023-03-25T07:14:51.134Z,211.85
2023-03-25T07:18:51.276Z,212.63
2023-03-25T07:22:51.440Z,207.52
2023-03-25T07:26:51.694Z,205.27
2023-03-25T07:30:51.602Z,200.54
2023-03-25T07:34:51.574Z,199.05
2023-03-25T07:38:51.542Z,200.22
2023-03-25T07:42:51.532Z,193.39
2023-03-25T07:46:51.460Z,202.17
2023-03-25T07:50:51.456Z,203.30
2023-03-25T07:54:51.404Z,200.15
2023-03-25T07:58:51.382Z,202.49
2023-03-25T08:02:51.423Z,199.16
2023-03-25T08:06:51.322Z,199.28
2023-03-25T08:10:51.414Z,200.57
2023-03-25T08:14:51.584Z,200.36
2023-03-25T08:18:51.656Z,199.01
2023-03-25T08:22:51.841Z,201.25
2023-03-25T08:26:51.920Z,200.43
2023-03-25T08:30:51.995Z,199.11
2023-03-25T08:34:52.080Z,199.52
2023-03-25T08:38:52.149Z,198.24
2023-03-25T08:42:52.288Z,198.90
2023-03-25T08:46:52.374Z,198.86
2023-03-25T08:50:52.429Z,199.75
2023-03-25T08:54:52.464Z,199.05
2023-03-25T08:58:52.495Z,202.94
2023-03-25T09:02:52.605Z,199.97
2023-03-25T09:07:10.962Z,199.75
2023-03-25T09:10:53.499Z,201.93
2023-03-25T09:14:52.503Z,199.75
2023-03-25T09:18:52.743Z,199.33
2023-03-25T09:22:52.927Z,199.70
2023-03-25T10:10:53.990Z,208.93
2023-03-25T10:14:54.203Z,208.55
2023-03-25T10:18:54.132Z,200.31
2023-03-25T10:22:54.202Z,192.84
2023-03-25T10:26:54.428Z,189.13
2023-03-25T10:30:54.330Z,181.70
2023-03-25T10:34:54.340Z,176.95
2023-03-25T10:38:54.302Z,170.97
2023-03-25T10:42:54.275Z,167.92
2023-03-25T10:46:54.211Z,156.84
2023-03-25T10:50:54.239Z,161.74
2023-03-25T10:54:54.163Z,160.19
2023-03-25T10:58:54.147Z,155.08
2023-03-25T11:02:54.216Z,156.07
2023-03-25T11:06:54.026Z,156.93
2023-03-25T11:10:54.011Z,146.54
2023-03-25T11:14:53.991Z,157.10
2023-03-25T11:18:53.972Z,162.25
2023-03-25T11:22:53.930Z,155.33
2023-03-25T11:26:53.868Z,154.06
2023-03-25T11:30:53.815Z,158.36
2023-03-25T11:34:53.829Z,154.67
2023-03-25T11:38:53.752Z,158.08
2023-03-25T11:42:53.714Z,155.44
2023-03-25T11:46:53.690Z,156.39
2023-03-25T11:50:53.651Z,149.76
2023-03-25T11:54:53.639Z,147.73
2023-03-25T11:58:53.555Z,147.23
2023-03-25T12:02:53.704Z,142.13
2023-03-25T12:06:53.564Z,141.19
2023-03-25T12:10:53.530Z,138.68
2023-03-25T12:14:53.444Z,136.36
2023-03-25T12:18:53.493Z,136.42
2023-03-25T12:22:53.562Z,137.40
2023-03-25T12:26:53.581Z,128.85
2023-03-25T12:30:53.827Z,126.49
2023-03-25T12:34:53.992Z,134.87
2023-03-25T12:38:54.152Z,134.55
2023-03-25T12:42:54.283Z,136.00
2023-03-25T12:46:54.340Z,129.68
2023-03-25T12:50:54.375Z,130.81
2023-03-25T12:54:54.458Z,127.60
2023-03-25T12:58:54.447Z,126.22
2023-03-25T13:02:54.568Z,133.00
2023-03-25T13:06:54.665Z,139.06
2023-03-25T13:10:54.843Z,130.63
2023-03-25T13:14:55.012Z,127.34
2023-03-25T13:18:55.162Z,137.52
2023-03-25T13:22:55.358Z,139.10
2023-03-25T13:26:55.536Z,143.30
2023-03-25T13:30:55.507Z,150.53
2023-03-25T13:34:55.664Z,150.02
2023-03-25T13:38:55.677Z,152.12
2023-03-25T13:42:55.698Z,157.37
2023-03-25T13:46:55.632Z,166.67
2023-03-25T13:50:55.597Z,165.82
2023-03-25T13:54:56.423Z,171.85
2023-03-25T13:58:55.975Z,173.22
2023-03-25T14:02:55.532Z,170.49
2023-03-25T14:06:55.434Z,173.67
2023-03-25T14:10:55.385Z,176.87
2023-03-25T14:14:57.162Z,176.32
2023-03-25T14:18:55.354Z,174.32
2023-03-25T14:22:55.300Z,180.35
2023-03-25T14:26:55.294Z,177.13
2023-03-25T14:30:55.240Z,177.97
2023-03-25T14:34:55.212Z,177.50
2023-03-25T14:38:55.166Z,165.19
2023-03-25T14:42:55.103Z,148.90
2023-03-25T14:46:55.170Z,142.74
2023-03-25T14:50:55.090Z,25.00
2023-03-25T14:54:55.064Z,24.84
2023-03-25T14:58:55.004Z,25.01
2023-03-25T15:02:55.045Z,25.00
2023-03-25T15:06:54.996Z,24.07
2023-03-25T15:10:54.897Z,25.27
2023-03-25T15:14:55.077Z,25.00
2023-03-25T15:18:55.216Z,58.83
2023-03-25T15:22:55.348Z,80.73
2023-03-25T15:26:55.361Z,91.58
2023-03-25T15:30:55.339Z,113.37
2023-03-25T15:34:55.285Z,63.76
2023-03-25T15:38:55.361Z,37.56
2023-03-25T15:42:55.376Z,24.80
2023-03-25T15:46:55.523Z,26.72
2023-03-25T15:50:55.681Z,25.67
2023-03-25T15:54:55.877Z,28.46
2023-03-25T15:58:56.110Z,25.00
2023-03-25T16:02:56.123Z,51.57
2023-03-25T16:06:55.995Z,83.31
2023-03-25T16:10:55.982Z,106.74
2023-03-25T16:14:55.947Z,121.02
2023-03-25T16:18:55.976Z,131.09
2023-03-25T16:22:55.864Z,155.12
2023-03-25T16:26:55.926Z,167.40
2023-03-25T16:30:55.826Z,173.96
2023-03-25T16:34:55.754Z,179.26
2023-03-25T16:38:55.699Z,183.55
2023-03-25T16:42:55.705Z,187.50
2023-03-25T16:46:55.615Z,191.84
2023-03-25T16:50:55.609Z,196.46
2023-03-25T16:54:55.517Z,197.97
2023-03-25T16:58:57.260Z,201.31
2023-03-25T17:02:55.631Z,201.74
2023-03-25T17:06:55.518Z,203.64
2023-03-25T17:10:55.508Z,206.01
2023-03-25T17:14:55.504Z,204.46
2023-03-25T17:18:55.429Z,206.81
2023-03-25T17:22:55.398Z,208.15
2023-03-25T17:26:55.373Z,208.07
2023-03-25T17:30:55.444Z,208.06
2023-03-25T17:34:55.259Z,209.60
2023-03-25T17:38:55.263Z,211.73
2023-03-25T17:42:55.217Z,211.26
2023-03-25T17:46:55.239Z,212.25
2023-03-25T17:50:55.148Z,212.91
2023-03-25T17:54:55.098Z,213.84
2023-03-25T17:58:55.081Z,212.46
2023-03-25T18:02:55.041Z,214.07
2023-03-25T18:06:55.138Z,214.05
2023-03-25T18:10:55.233Z,214.00
2023-03-25T18:14:55.157Z,215.90
2023-03-25T18:18:55.026Z,215.86
2023-03-25T18:22:55.895Z,214.87
2023-03-25T18:26:54.958Z,215.11
2023-03-25T18:30:55.187Z,214.81
2023-03-25T18:34:54.854Z,217.27
2023-03-25T18:38:54.834Z,215.37
2023-03-25T18:42:54.830Z,216.60
2023-03-25T18:46:54.795Z,218.48
2023-03-25T18:50:54.945Z,218.13
2023-03-25T18:54:54.696Z,218.43
2023-03-25T18:58:54.667Z,219.61
2023-03-25T19:02:54.745Z,219.31
2023-03-25T19:06:54.584Z,220.48
2023-03-25T19:11:01.736Z,219.86
2023-03-25T19:14:55.499Z,220.81
2023-03-25T19:18:54.499Z,220.36
2023-03-25T19:22:54.456Z,220.16
2023-03-25T19:26:54.392Z,220.48
2023-03-25T19:30:54.640Z,220.21
2023-03-25T19:34:54.363Z,220.37
2023-03-25T19:38:54.332Z,219.30
2023-03-25T19:42:54.393Z,219.55
2023-03-25T19:46:54.481Z,219.49
2023-03-25T19:50:54.648Z,218.76
2023-03-25T19:54:54.741Z,218.71
2023-03-25T19:58:54.883Z,217.77
2023-03-25T20:02:55.104Z,218.12
2023-03-25T20:06:55.138Z,218.49
2023-03-25T20:10:55.272Z,218.02
2023-03-25T20:14:55.468Z,218.19
2023-03-25T20:18:55.622Z,218.54
2023-03-25T20:22:55.768Z,217.09
2023-03-25T20:26:55.912Z,217.20
2023-03-25T20:30:56.153Z,216.80
2023-03-25T20:34:56.358Z,216.28
2023-03-25T20:38:58.080Z,216.31
2023-03-25T20:42:56.501Z,215.87
2023-03-25T20:46:56.512Z,215.21
2023-03-25T20:50:56.447Z,215.34
2023-03-25T20:54:56.439Z,215.50
2023-03-25T20:58:56.358Z,216.64
2023-03-25T21:02:56.413Z,215.72
2023-03-25T21:06:56.307Z,214.78
2023-03-25T21:10:56.941Z,214.98
2023-03-25T21:14:56.267Z,214.44
2023-03-25T21:18:56.239Z,214.42
2023-03-25T21:22:56.423Z,214.58
2023-03-25T21:26:56.596Z,213.39
2023-03-25T21:30:56.768Z,214.16
2023-03-25T21:34:56.791Z,212.76
2023-03-25T21:38:56.893Z,211.88
2023-03-25T21:42:57.012Z,211.82
2023-03-25T21:46:57.132Z,211.25
2023-03-25T21:50:57.239Z,211.93
2023-03-25T21:54:57.221Z,212.04
2023-03-25T21:58:57.262Z,211.37
2023-03-25T22:02:57.227Z,211.29
2023-03-25T22:06:57.212Z,212.07
2023-03-25T22:10:57.192Z,210.04
2023-03-25T22:14:57.151Z,211.31
2023-03-25T22:18:57.210Z,210.76
2023-03-25T22:22:57.177Z,210.70
2023-03-25T22:26:57.153Z,211.81
2023-03-25T22:30:57.198Z,210.08
2023-03-25T22:34:57.157Z,210.99
2023-03-25T22:38:57.136Z,209.73
2023-03-25T22:42:57.131Z,210.05
2023-03-25T22:46:57.127Z,211.06
2023-03-25T22:50:57.156Z,210.92
2023-03-25T22:54:57.169Z,210.80
2023-03-25T22:58:57.158Z,210.77
2023-03-25T23:02:57.221Z,210.93
2023-03-25T23:07:07.242Z,209.36
2023-03-25T23:10:58.221Z,210.76
2023-03-25T23:14:57.159Z,210.30
2023-03-25T23:18:57.145Z,210.44
2023-03-25T23:22:57.084Z,208.68
2023-03-25T23:26:57.076Z,209.79
2023-03-25T23:30:57.030Z,209.32
2023-03-25T23:34:57.074Z,209.54
2023-03-25T23:38:57.139Z,209.79
2023-03-25T23:42:57.239Z,209.48
2023-03-25T23:46:57.288Z,210.26
2023-03-25T23:50:57.365Z,209.96
2023-03-25T23:54:57.435Z,208.93
2023-03-25T23:58:57.532Z,210.24
